sensor_id;sensor_type;location;lat;lon;timestamp;pressure;altitude;pressure_sealevel;temperature;humidity
77077;BME280;66003;52.286;104.306;2023-03-01T00:01:50;96913.22;;;-5.21;44.88
77077;BME280;66003;52.286;104.306;2023-03-01T00:04:16;96927.38;;;-5.16;44.78
77077;BME280;66003;52.286;104.306;2023-03-01T00:06:43;96959.34;;;-4.75;44.59
77077;BME280;66003;52.286;104.306;2023-03-01T00:09:13;96954.66;;;-4.48;44.42
77077;BME280;66003;52.286;104.306;2023-03-01T00:11:39;96942.16;;;-4.53;44.54
77077;BME280;66003;52.286;104.306;2023-03-01T00:14:06;96936.91;;;-4.45;43.99
77077;BME280;66003;52.286;104.306;2023-03-01T00:16:37;96917.53;;;-4.50;43.84
77077;BME280;66003;52.286;104.306;2023-03-01T00:19:07;96911.28;;;-4.41;43.80
77077;BME280;66003;52.286;104.306;2023-03-01T00:21:33;96947.97;;;-4.12;43.83
77077;BME280;66003;52.286;104.306;2023-03-01T00:24:01;96939.53;;;-3.91;43.37
77077;BME280;66003;52.286;104.306;2023-03-01T00:26:27;96901.19;;;-3.90;42.22
77077;BME280;66003;52.286;104.306;2023-03-01T00:28:54;96939.94;;;-3.42;42.10
77077;BME280;66003;52.286;104.306;2023-03-01T00:31:26;96888.22;;;-3.61;41.99
77077;BME280;66003;52.286;104.306;2023-03-01T00:33:55;96925.38;;;-3.36;42.23
77077;BME280;66003;52.286;104.306;2023-03-01T00:36:24;96906.03;;;-3.27;42.14
77077;BME280;66003;52.286;104.306;2023-03-01T00:38:51;96879.09;;;-3.42;42.08
77077;BME280;66003;52.286;104.306;2023-03-01T00:41:19;96918.03;;;-3.03;42.15
77077;BME280;66003;52.286;104.306;2023-03-01T00:43:45;96879.00;;;-3.34;41.22
77077;BME280;66003;52.286;104.306;2023-03-01T00:46:14;96885.94;;;-3.27;40.91
77077;BME280;66003;52.286;104.306;2023-03-01T00:48:41;96904.69;;;-3.23;40.83
77077;BME280;66003;52.286;104.306;2023-03-01T00:53:38;96883.94;;;-2.80;40.94
77077;BME280;66003;52.286;104.306;2023-03-01T00:56:05;96901.94;;;-2.41;41.06
77077;BME280;66003;52.286;104.306;2023-03-01T00:58:33;96908.00;;;-2.05;40.37
77077;BME280;66003;52.286;104.306;2023-03-01T01:00:59;96904.00;;;-1.79;39.31
77077;BME280;66003;52.286;104.306;2023-03-01T01:03:26;96859.72;;;-2.17;38.74
77077;BME280;66003;52.286;104.306;2023-03-01T01:05:53;96866.56;;;-1.73;39.11
77077;BME280;66003;52.286;104.306;2023-03-01T01:08:20;96901.97;;;-1.35;38.79
77077;BME280;66003;52.286;104.306;2023-03-01T01:10:46;96899.97;;;-1.33;38.65
77077;BME280;66003;52.286;104.306;2023-03-01T01:13:13;96903.88;;;-1.22;38.00
77077;BME280;66003;52.286;104.306;2023-03-01T01:15:40;96901.53;;;-0.83;38.79
77077;BME280;66003;52.286;104.306;2023-03-01T01:18:06;96845.56;;;-0.90;38.48
77077;BME280;66003;52.286;104.306;2023-03-01T01:20:32;96889.19;;;-0.41;38.02
77077;BME280;66003;52.286;104.306;2023-03-01T01:23:00;96877.00;;;-0.55;36.66
77077;BME280;66003;52.286;104.306;2023-03-01T01:25:26;96884.75;;;-0.41;36.38
77077;BME280;66003;52.286;104.306;2023-03-01T01:27:52;96884.28;;;0.04;37.41
77077;BME280;66003;52.286;104.306;2023-03-01T01:30:18;96868.75;;;0.22;36.25
77077;BME280;66003;52.286;104.306;2023-03-01T01:32:45;96857.03;;;0.57;35.31
77077;BME280;66003;52.286;104.306;2023-03-01T01:35:11;96850.75;;;0.52;35.05
77077;BME280;66003;52.286;104.306;2023-03-01T01:37:37;96848.69;;;0.87;35.13
77077;BME280;66003;52.286;104.306;2023-03-01T01:40:03;96867.69;;;0.95;33.82
77077;BME280;66003;52.286;104.306;2023-03-01T01:42:30;96868.47;;;1.09;35.54
77077;BME280;66003;52.286;104.306;2023-03-01T01:45:26;96873.91;;;1.21;36.01
77077;BME280;66003;52.286;104.306;2023-03-01T01:47:54;96874.38;;;1.04;35.19
77077;BME280;66003;52.286;104.306;2023-03-01T01:50:21;96799.38;;;0.69;35.38
77077;BME280;66003;52.286;104.306;2023-03-01T01:52:50;96864.28;;;0.88;34.64
77077;BME280;66003;52.286;104.306;2023-03-01T01:55:22;96855.59;;;0.61;34.36
77077;BME280;66003;52.286;104.306;2023-03-01T01:57:54;96820.38;;;-0.10;34.55
77077;BME280;66003;52.286;104.306;2023-03-01T02:00:25;96815.97;;;0.17;35.06
77077;BME280;66003;52.286;104.306;2023-03-01T02:02:57;96837.81;;;0.63;34.90
77077;BME280;66003;52.286;104.306;2023-03-01T02:08:19;96809.09;;;0.16;35.18
77077;BME280;66003;52.286;104.306;2023-03-01T02:10:47;96805.88;;;0.40;35.63
77077;BME280;66003;52.286;104.306;2023-03-01T02:13:14;96822.03;;;0.57;35.32
77077;BME280;66003;52.286;104.306;2023-03-01T02:15:41;96813.53;;;0.61;35.16
77077;BME280;66003;52.286;104.306;2023-03-01T02:18:12;96796.91;;;0.81;35.39
77077;BME280;66003;52.286;104.306;2023-03-01T02:23:15;96801.13;;;0.88;34.81
77077;BME280;66003;52.286;104.306;2023-03-01T02:25:55;96806.81;;;0.92;34.76
77077;BME280;66003;52.286;104.306;2023-03-01T02:28:36;96799.13;;;0.90;35.27
77077;BME280;66003;52.286;104.306;2023-03-01T02:31:07;96792.19;;;0.96;34.49
77077;BME280;66003;52.286;104.306;2023-03-01T02:33:53;96751.66;;;1.17;34.26
77077;BME280;66003;52.286;104.306;2023-03-01T02:36:26;96782.41;;;1.61;34.63
77077;BME280;66003;52.286;104.306;2023-03-01T02:38:58;96786.75;;;1.49;34.17
77077;BME280;66003;52.286;104.306;2023-03-01T02:41:28;96731.84;;;1.45;33.47
77077;BME280;66003;52.286;104.306;2023-03-01T02:43:56;96740.06;;;1.62;33.44
77077;BME280;66003;52.286;104.306;2023-03-01T02:46:25;96743.56;;;1.81;33.37
77077;BME280;66003;52.286;104.306;2023-03-01T02:48:54;96725.06;;;1.63;33.14
77077;BME280;66003;52.286;104.306;2023-03-01T02:51:52;96761.25;;;2.05;33.67
77077;BME280;66003;52.286;104.306;2023-03-01T02:57:11;96758.44;;;2.25;33.63
77077;BME280;66003;52.286;104.306;2023-03-01T02:59:39;96706.38;;;1.71;33.71
77077;BME280;66003;52.286;104.306;2023-03-01T03:02:06;96745.94;;;2.39;33.99
77077;BME280;66003;52.286;104.306;2023-03-01T03:04:32;96708.53;;;2.05;33.09
77077;BME280;66003;52.286;104.306;2023-03-01T03:06:58;96721.50;;;2.50;32.94
77077;BME280;66003;52.286;104.306;2023-03-01T03:09:24;96723.84;;;2.76;32.92
77077;BME280;66003;52.286;104.306;2023-03-01T03:11:50;96708.38;;;2.62;32.76
77077;BME280;66003;52.286;104.306;2023-03-01T03:14:17;96688.75;;;2.58;32.20
77077;BME280;66003;52.286;104.306;2023-03-01T03:16:45;96703.63;;;2.70;32.64
77077;BME280;66003;52.286;104.306;2023-03-01T03:19:13;96696.19;;;2.97;32.34
77077;BME280;66003;52.286;104.306;2023-03-01T03:21:39;96707.59;;;3.28;31.54
77077;BME280;66003;52.286;104.306;2023-03-01T03:24:05;96686.59;;;3.62;31.67
77077;BME280;66003;52.286;104.306;2023-03-01T03:26:32;96696.22;;;3.57;31.70
77077;BME280;66003;52.286;104.306;2023-03-01T03:28:58;96693.91;;;3.49;31.42
77077;BME280;66003;52.286;104.306;2023-03-01T03:31:24;96672.22;;;3.58;30.92
77077;BME280;66003;52.286;104.306;2023-03-01T03:33:50;96689.75;;;3.94;31.61
77077;BME280;66003;52.286;104.306;2023-03-01T03:36:19;96666.75;;;3.83;31.70
77077;BME280;66003;52.286;104.306;2023-03-01T03:38:45;96685.03;;;3.96;30.92
77077;BME280;66003;52.286;104.306;2023-03-01T03:41:12;96656.63;;;4.04;31.73
77077;BME280;66003;52.286;104.306;2023-03-01T03:43:40;96673.53;;;4.26;31.26
77077;BME280;66003;52.286;104.306;2023-03-01T03:46:09;96633.06;;;4.14;30.76
77077;BME280;66003;52.286;104.306;2023-03-01T03:48:38;96662.94;;;4.49;30.86
77077;BME280;66003;52.286;104.306;2023-03-01T03:51:05;96661.38;;;4.37;30.46
77077;BME280;66003;52.286;104.306;2023-03-01T03:53:32;96645.59;;;4.18;30.37
77077;BME280;66003;52.286;104.306;2023-03-01T03:55:59;96652.88;;;4.75;30.62
77077;BME280;66003;52.286;104.306;2023-03-01T03:58:26;96660.72;;;4.81;30.55
77077;BME280;66003;52.286;104.306;2023-03-01T04:00:54;96593.31;;;3.97;30.62
77077;BME280;66003;52.286;104.306;2023-03-01T04:03:21;96632.53;;;4.63;30.48
77077;BME280;66003;52.286;104.306;2023-03-01T04:05:50;96631.03;;;4.67;30.72
77077;BME280;66003;52.286;104.306;2023-03-01T04:08:17;96608.28;;;4.95;30.95
77077;BME280;66003;52.286;104.306;2023-03-01T04:10:47;96608.06;;;4.85;30.09
77077;BME280;66003;52.286;104.306;2023-03-01T04:13:16;96609.78;;;4.91;30.38
77077;BME280;66003;52.286;104.306;2023-03-01T04:15:46;96611.25;;;4.70;30.12
77077;BME280;66003;52.286;104.306;2023-03-01T04:18:15;96586.59;;;4.81;30.72
77077;BME280;66003;52.286;104.306;2023-03-01T04:20:42;96600.34;;;4.95;30.28
77077;BME280;66003;52.286;104.306;2023-03-01T04:23:16;96569.31;;;5.07;30.34
77077;BME280;66003;52.286;104.306;2023-03-01T04:25:50;96593.97;;;4.96;30.54
77077;BME280;66003;52.286;104.306;2023-03-01T04:28:23;96583.94;;;5.26;30.58
77077;BME280;66003;52.286;104.306;2023-03-01T04:30:51;96584.75;;;5.43;30.27
77077;BME280;66003;52.286;104.306;2023-03-01T04:33:18;96537.31;;;5.25;29.50
77077;BME280;66003;52.286;104.306;2023-03-01T04:35:44;96562.69;;;5.38;29.58
77077;BME280;66003;52.286;104.306;2023-03-01T04:38:10;96556.94;;;5.13;30.18
77077;BME280;66003;52.286;104.306;2023-03-01T04:40:37;96549.41;;;5.55;30.05
77077;BME280;66003;52.286;104.306;2023-03-01T04:43:04;96540.97;;;5.91;30.09
77077;BME280;66003;52.286;104.306;2023-03-01T04:45:32;96520.47;;;5.87;29.75
77077;BME280;66003;52.286;104.306;2023-03-01T04:48:00;96537.50;;;6.07;29.50
77077;BME280;66003;52.286;104.306;2023-03-01T04:50:26;96539.91;;;6.31;29.08
77077;BME280;66003;52.286;104.306;2023-03-01T04:52:52;96527.09;;;6.23;29.25
77077;BME280;66003;52.286;104.306;2023-03-01T04:55:19;96521.78;;;6.23;28.79
77077;BME280;66003;52.286;104.306;2023-03-01T04:57:45;96522.75;;;6.16;29.36
77077;BME280;66003;52.286;104.306;2023-03-01T05:00:13;96505.53;;;5.97;29.34
77077;BME280;66003;52.286;104.306;2023-03-01T05:02:52;96510.47;;;6.10;29.78
77077;BME280;66003;52.286;104.306;2023-03-01T05:05:27;96498.63;;;5.79;30.01
77077;BME280;66003;52.286;104.306;2023-03-01T05:07:55;96472.03;;;5.74;30.18
77077;BME280;66003;52.286;104.306;2023-03-01T05:10:23;96450.38;;;5.61;30.58
77077;BME280;66003;52.286;104.306;2023-03-01T05:12:49;96471.66;;;5.66;30.43
77077;BME280;66003;52.286;104.306;2023-03-01T05:15:15;96433.00;;;5.70;30.07
77077;BME280;66003;52.286;104.306;2023-03-01T05:17:41;96451.78;;;6.07;30.28
77077;BME280;66003;52.286;104.306;2023-03-01T05:20:08;96415.50;;;5.69;30.40
77077;BME280;66003;52.286;104.306;2023-03-01T05:22:35;96406.03;;;5.56;30.33
77077;BME280;66003;52.286;104.306;2023-03-01T05:25:02;96411.56;;;5.71;30.44
77077;BME280;66003;52.286;104.306;2023-03-01T05:27:29;96438.59;;;6.12;30.34
77077;BME280;66003;52.286;104.306;2023-03-01T05:29:56;96408.03;;;5.66;30.61
77077;BME280;66003;52.286;104.306;2023-03-01T05:32:22;96413.47;;;5.54;30.82
77077;BME280;66003;52.286;104.306;2023-03-01T05:34:48;96402.44;;;5.62;30.92
77077;BME280;66003;52.286;104.306;2023-03-01T05:37:14;96372.22;;;5.41;30.67
77077;BME280;66003;52.286;104.306;2023-03-01T05:39:41;96426.75;;;5.59;30.50
77077;BME280;66003;52.286;104.306;2023-03-01T05:42:10;96416.50;;;5.46;30.52
77077;BME280;66003;52.286;104.306;2023-03-01T05:44:37;96380.47;;;4.90;31.12
77077;BME280;66003;52.286;104.306;2023-03-01T05:47:03;96424.28;;;5.31;31.44
77077;BME280;66003;52.286;104.306;2023-03-01T05:49:29;96377.41;;;5.15;31.56
77077;BME280;66003;52.286;104.306;2023-03-01T05:51:57;96354.84;;;5.12;31.03
77077;BME280;66003;52.286;104.306;2023-03-01T05:54:23;96345.16;;;4.84;31.24
77077;BME280;66003;52.286;104.306;2023-03-01T05:56:49;96374.03;;;5.19;31.40
77077;BME280;66003;52.286;104.306;2023-03-01T05:59:15;96379.22;;;5.31;31.42
77077;BME280;66003;52.286;104.306;2023-03-01T06:01:42;96378.31;;;5.64;31.07
77077;BME280;66003;52.286;104.306;2023-03-01T06:04:09;96305.97;;;5.41;30.82
77077;BME280;66003;52.286;104.306;2023-03-01T06:06:36;96369.28;;;5.43;31.22
77077;BME280;66003;52.286;104.306;2023-03-01T06:09:04;96333.75;;;5.39;31.00
77077;BME280;66003;52.286;104.306;2023-03-01T06:11:36;96359.31;;;5.72;30.96
77077;BME280;66003;52.286;104.306;2023-03-01T06:14:03;96364.25;;;5.85;30.61
77077;BME280;66003;52.286;104.306;2023-03-01T06:16:29;96321.09;;;5.68;30.96
77077;BME280;66003;52.286;104.306;2023-03-01T06:18:55;96328.31;;;5.72;30.99
77077;BME280;66003;52.286;104.306;2023-03-01T06:21:21;96327.25;;;5.95;30.24
77077;BME280;66003;52.286;104.306;2023-03-01T06:23:47;96333.63;;;6.21;30.51
77077;BME280;66003;52.286;104.306;2023-03-01T06:26:13;96340.38;;;6.34;29.99
77077;BME280;66003;52.286;104.306;2023-03-01T06:28:39;96340.03;;;6.25;29.44
77077;BME280;66003;52.286;104.306;2023-03-01T06:31:08;96314.91;;;6.33;29.50
77077;BME280;66003;52.286;104.306;2023-03-01T06:33:35;96318.31;;;6.60;29.91
77077;BME280;66003;52.286;104.306;2023-03-01T06:36:03;96293.78;;;6.48;28.50
77077;BME280;66003;52.286;104.306;2023-03-01T06:38:29;96302.28;;;6.50;29.01
77077;BME280;66003;52.286;104.306;2023-03-01T06:40:55;96258.53;;;6.21;29.38
77077;BME280;66003;52.286;104.306;2023-03-01T06:43:22;96274.84;;;6.34;29.31
77077;BME280;66003;52.286;104.306;2023-03-01T06:45:49;96275.56;;;6.25;29.52
77077;BME280;66003;52.286;104.306;2023-03-01T06:48:15;96269.81;;;6.38;29.90
77077;BME280;66003;52.286;104.306;2023-03-01T06:50:41;96250.31;;;6.22;29.57
77077;BME280;66003;52.286;104.306;2023-03-01T06:53:07;96273.25;;;6.38;29.62
77077;BME280;66003;52.286;104.306;2023-03-01T06:55:35;96234.53;;;6.05;29.93
77077;BME280;66003;52.286;104.306;2023-03-01T06:58:02;96290.03;;;6.44;29.91
77077;BME280;66003;52.286;104.306;2023-03-01T07:00:29;96272.28;;;6.18;29.94
77077;BME280;66003;52.286;104.306;2023-03-01T07:02:58;96276.56;;;6.19;30.19
77077;BME280;66003;52.286;104.306;2023-03-01T07:05:24;96292.56;;;6.29;30.10
77077;BME280;66003;52.286;104.306;2023-03-01T07:07:50;96261.94;;;6.16;30.24
77077;BME280;66003;52.286;104.306;2023-03-01T07:10:17;96257.47;;;6.22;29.57
77077;BME280;66003;52.286;104.306;2023-03-01T07:12:43;96276.94;;;6.69;29.81
77077;BME280;66003;52.286;104.306;2023-03-01T07:15:09;96278.69;;;6.91;30.13
77077;BME280;66003;52.286;104.306;2023-03-01T07:17:36;96247.81;;;6.79;29.64
77077;BME280;66003;52.286;104.306;2023-03-01T07:20:02;96258.47;;;6.89;29.71
77077;BME280;66003;52.286;104.306;2023-03-01T07:22:29;96257.13;;;6.87;29.52
77077;BME280;66003;52.286;104.306;2023-03-01T07:24:55;96251.59;;;6.94;29.93
77077;BME280;66003;52.286;104.306;2023-03-01T07:27:22;96272.88;;;6.99;29.30
77077;BME280;66003;52.286;104.306;2023-03-01T07:29:48;96267.59;;;7.04;29.54
77077;BME280;66003;52.286;104.306;2023-03-01T07:32:14;96251.06;;;6.97;29.82
77077;BME280;66003;52.286;104.306;2023-03-01T07:34:40;96269.22;;;7.10;29.63
77077;BME280;66003;52.286;104.306;2023-03-01T07:37:06;96265.03;;;7.24;29.55
77077;BME280;66003;52.286;104.306;2023-03-01T07:39:32;96283.06;;;7.17;28.92
77077;BME280;66003;52.286;104.306;2023-03-01T07:41:58;96255.06;;;6.99;29.10
77077;BME280;66003;52.286;104.306;2023-03-01T07:44:25;96247.28;;;6.82;29.49
77077;BME280;66003;52.286;104.306;2023-03-01T07:46:51;96273.13;;;6.92;28.74
77077;BME280;66003;52.286;104.306;2023-03-01T07:49:22;96267.09;;;7.07;29.35
77077;BME280;66003;52.286;104.306;2023-03-01T07:51:48;96213.69;;;6.56;28.84
77077;BME280;66003;52.286;104.306;2023-03-01T07:54:14;96235.03;;;6.76;29.02
77077;BME280;66003;52.286;104.306;2023-03-01T07:56:40;96265.50;;;7.06;29.19
77077;BME280;66003;52.286;104.306;2023-03-01T07:59:06;96255.91;;;7.05;28.99
77077;BME280;66003;52.286;104.306;2023-03-01T08:01:32;96254.84;;;7.06;28.63
77077;BME280;66003;52.286;104.306;2023-03-01T08:03:58;96263.63;;;7.11;28.88
77077;BME280;66003;52.286;104.306;2023-03-01T08:06:24;96242.59;;;6.95;29.35
77077;BME280;66003;52.286;104.306;2023-03-01T08:08:51;96264.22;;;7.18;28.84
77077;BME280;66003;52.286;104.306;2023-03-01T08:11:17;96222.13;;;7.00;29.11
77077;BME280;66003;52.286;104.306;2023-03-01T08:13:43;96256.28;;;7.29;28.79
77077;BME280;66003;52.286;104.306;2023-03-01T08:16:14;96275.69;;;7.29;29.37
77077;BME280;66003;52.286;104.306;2023-03-01T08:18:41;96271.69;;;7.32;28.79
77077;BME280;66003;52.286;104.306;2023-03-01T08:21:22;96271.16;;;7.24;28.87
77077;BME280;66003;52.286;104.306;2023-03-01T08:23:52;96240.03;;;7.20;29.32
77077;BME280;66003;52.286;104.306;2023-03-01T08:26:20;96266.97;;;7.39;29.63
77077;BME280;66003;52.286;104.306;2023-03-01T08:28:48;96247.78;;;7.27;29.77
77077;BME280;66003;52.286;104.306;2023-03-01T08:31:21;96247.72;;;7.16;29.72
77077;BME280;66003;52.286;104.306;2023-03-01T08:33:50;96282.09;;;7.38;30.05
77077;BME280;66003;52.286;104.306;2023-03-01T08:36:25;96269.56;;;7.29;30.09
77077;BME280;66003;52.286;104.306;2023-03-01T08:38:52;96279.38;;;7.18;30.52
77077;BME280;66003;52.286;104.306;2023-03-01T08:41:18;96253.22;;;7.00;30.02
77077;BME280;66003;52.286;104.306;2023-03-01T08:43:46;96279.88;;;7.15;30.03
77077;BME280;66003;52.286;104.306;2023-03-01T08:46:15;96271.59;;;7.06;30.39
77077;BME280;66003;52.286;104.306;2023-03-01T08:48:44;96279.88;;;7.15;29.85
77077;BME280;66003;52.286;104.306;2023-03-01T08:51:15;96280.97;;;7.19;30.04
77077;BME280;66003;52.286;104.306;2023-03-01T08:53:43;96271.13;;;7.19;29.91
77077;BME280;66003;52.286;104.306;2023-03-01T08:56:10;96250.66;;;7.20;29.87
77077;BME280;66003;52.286;104.306;2023-03-01T08:58:37;96278.34;;;7.34;29.79
77077;BME280;66003;52.286;104.306;2023-03-01T09:01:08;96265.53;;;7.21;29.75
77077;BME280;66003;52.286;104.306;2023-03-01T09:03:34;96276.72;;;7.18;30.07
77077;BME280;66003;52.286;104.306;2023-03-01T09:06:01;96294.59;;;7.38;29.38
77077;BME280;66003;52.286;104.306;2023-03-01T09:08:28;96290.34;;;7.37;29.44
77077;BME280;66003;52.286;104.306;2023-03-01T09:10:54;96288.41;;;7.22;29.88
77077;BME280;66003;52.286;104.306;2023-03-01T09:13:21;96277.97;;;7.05;30.03
77077;BME280;66003;52.286;104.306;2023-03-01T09:15:50;96297.16;;;7.17;29.73
77077;BME280;66003;52.286;104.306;2023-03-01T09:18:16;96269.41;;;6.98;30.25
77077;BME280;66003;52.286;104.306;2023-03-01T09:20:43;96295.81;;;7.15;29.96
77077;BME280;66003;52.286;104.306;2023-03-01T09:23:09;96279.88;;;7.15;29.97
77077;BME280;66003;52.286;104.306;2023-03-01T09:25:35;96277.72;;;7.07;29.59
77077;BME280;66003;52.286;104.306;2023-03-01T09:28:01;96308.06;;;7.21;29.18
77077;BME280;66003;52.286;104.306;2023-03-01T09:30:27;96280.09;;;7.08;29.34
77077;BME280;66003;52.286;104.306;2023-03-01T09:32:53;96299.56;;;7.19;29.94
77077;BME280;66003;52.286;104.306;2023-03-01T09:35:22;96274.22;;;6.96;29.55
77077;BME280;66003;52.286;104.306;2023-03-01T09:37:49;96328.59;;;7.31;30.66
77077;BME280;66003;52.286;104.306;2023-03-01T09:40:18;96310.19;;;7.19;30.06
77077;BME280;66003;52.286;104.306;2023-03-01T09:43:02;96325.66;;;7.32;30.68
77077;BME280;66003;52.286;104.306;2023-03-01T09:45:38;96284.34;;;7.09;30.67
77077;BME280;66003;52.286;104.306;2023-03-01T09:48:17;96282.72;;;7.03;29.87
77077;BME280;66003;52.286;104.306;2023-03-01T09:50:45;96302.63;;;7.01;30.18
77077;BME280;66003;52.286;104.306;2023-03-01T09:53:21;96276.69;;;6.71;30.49
77077;BME280;66003;52.286;104.306;2023-03-01T09:55:55;96294.00;;;6.78;31.00
77077;BME280;66003;52.286;104.306;2023-03-01T09:59:11;96314.44;;;6.78;30.95
77077;BME280;66003;52.286;104.306;2023-03-01T10:06:32;96325.09;;;6.46;32.47
77077;BME280;66003;52.286;104.306;2023-03-01T10:09:08;96323.75;;;6.43;31.81
77077;BME280;66003;52.286;104.306;2023-03-01T10:11:39;96314.91;;;6.38;32.12
77077;BME280;66003;52.286;104.306;2023-03-01T10:14:38;96327.19;;;6.44;31.98
77077;BME280;66003;52.286;104.306;2023-03-01T10:17:12;96303.00;;;6.08;31.93
77077;BME280;66003;52.286;104.306;2023-03-01T10:19:46;96333.38;;;6.23;31.13
77077;BME280;66003;52.286;104.306;2023-03-01T10:22:16;96340.47;;;6.17;31.98
77077;BME280;66003;52.286;104.306;2023-03-01T10:24:44;96300.69;;;5.90;31.68
77077;BME280;66003;52.286;104.306;2023-03-01T10:28:16;96338.22;;;6.04;31.81
77077;BME280;66003;52.286;104.306;2023-03-01T10:30:17;96307.09;;;5.72;31.91
77077;BME280;66003;52.286;104.306;2023-03-01T10:32:47;96303.00;;;5.60;32.37
77077;BME280;66003;52.286;104.306;2023-03-01T10:35:18;96340.69;;;5.67;31.62
77077;BME280;66003;52.286;104.306;2023-03-01T10:38:17;96338.81;;;5.62;31.85
77077;BME280;66003;52.286;104.306;2023-03-01T10:40:58;96343.19;;;5.52;32.21
77077;BME280;66003;52.286;104.306;2023-03-01T10:43:46;96319.25;;;5.47;32.32
77077;BME280;66003;52.286;104.306;2023-03-01T10:46:36;96310.16;;;5.37;33.03
77077;BME280;66003;52.286;104.306;2023-03-01T10:49:19;96348.53;;;5.57;33.37
77077;BME280;66003;52.286;104.306;2023-03-01T10:51:47;96328.00;;;5.47;33.30
77077;BME280;66003;52.286;104.306;2023-03-01T10:54:27;96334.13;;;5.48;33.07
77077;BME280;66003;52.286;104.306;2023-03-01T10:56:57;96309.94;;;5.22;32.62
77077;BME280;66003;52.286;104.306;2023-03-01T10:59:31;96353.09;;;5.39;32.97
77077;BME280;66003;52.286;104.306;2023-03-01T11:04:59;96362.56;;;5.35;32.92
77077;BME280;66003;52.286;104.306;2023-03-01T11:07:26;96350.81;;;5.26;32.90
77077;BME280;66003;52.286;104.306;2023-03-01T11:09:53;96317.25;;;4.93;33.13
77077;BME280;66003;52.286;104.306;2023-03-01T11:12:20;96362.38;;;5.20;33.05
77077;BME280;66003;52.286;104.306;2023-03-01T11:14:53;96349.41;;;5.02;33.48
77077;BME280;66003;52.286;104.306;2023-03-01T11:17:30;96363.91;;;5.16;33.27
77077;BME280;66003;52.286;104.306;2023-03-01T11:20:30;96369.44;;;5.15;33.08
77077;BME280;66003;52.286;104.306;2023-03-01T11:23:13;96329.69;;;4.93;33.33
77077;BME280;66003;52.286;104.306;2023-03-01T11:25:56;96362.66;;;5.02;33.37
77077;BME280;66003;52.286;104.306;2023-03-01T11:28:26;96354.41;;;4.82;33.15
77077;BME280;66003;52.286;104.306;2023-03-01T11:31:04;96365.81;;;4.82;33.04
77077;BME280;66003;52.286;104.306;2023-03-01T11:37:02;96376.22;;;4.72;33.40
77077;BME280;66003;52.286;104.306;2023-03-01T11:42:15;96376.84;;;4.01;35.41
77077;BME280;66003;52.286;104.306;2023-03-01T11:44:47;96388.03;;;4.19;35.51
77077;BME280;66003;52.286;104.306;2023-03-01T11:47:33;96394.69;;;4.22;35.46
77077;BME280;66003;52.286;104.306;2023-03-01T11:53:11;96420.78;;;3.90;35.61
77077;BME280;66003;52.286;104.306;2023-03-01T11:56:03;96423.50;;;4.07;35.33
77077;BME280;66003;52.286;104.306;2023-03-01T12:01:12;96426.78;;;3.85;35.28
77077;BME280;66003;52.286;104.306;2023-03-01T12:12:02;96377.00;;;3.54;36.07
77077;BME280;66003;52.286;104.306;2023-03-01T12:14:55;96429.28;;;3.92;35.53
77077;BME280;66003;52.286;104.306;2023-03-01T12:29:25;96421.38;;;3.80;34.95
77077;BME280;66003;52.286;104.306;2023-03-01T12:43:08;96432.91;;;3.74;34.98
77077;BME280;66003;52.286;104.306;2023-03-01T12:49:05;96434.81;;;3.79;34.33
77077;BME280;66003;52.286;104.306;2023-03-01T12:51:35;96447.22;;;3.78;34.37
77077;BME280;66003;52.286;104.306;2023-03-01T12:54:22;96439.56;;;3.77;34.87
77077;BME280;66003;52.286;104.306;2023-03-01T12:56:52;96406.34;;;3.69;34.50
77077;BME280;66003;52.286;104.306;2023-03-01T12:59:21;96448.06;;;3.67;34.36
77077;BME280;66003;52.286;104.306;2023-03-01T13:04:37;96456.81;;;3.44;35.08
77077;BME280;66003;52.286;104.306;2023-03-01T13:17:53;96427.66;;;3.39;35.20
77077;BME280;66003;52.286;104.306;2023-03-01T13:20:25;96437.75;;;3.42;35.28
77077;BME280;66003;52.286;104.306;2023-03-01T13:31:08;96440.38;;;3.42;35.06
77077;BME280;66003;52.286;104.306;2023-03-01T13:33:51;96480.13;;;3.59;35.07
77077;BME280;66003;52.286;104.306;2023-03-01T13:36:47;96474.75;;;3.66;35.07
77077;BME280;66003;52.286;104.306;2023-03-01T13:39:27;96490.59;;;3.66;35.16
77077;BME280;66003;52.286;104.306;2023-03-01T13:41:58;96481.50;;;3.61;35.09
77077;BME280;66003;52.286;104.306;2023-03-01T13:44:34;96478.44;;;3.53;35.34
77077;BME280;66003;52.286;104.306;2023-03-01T13:49:56;96501.28;;;3.59;35.08
77077;BME280;66003;52.286;104.306;2023-03-01T13:52:48;96464.28;;;3.36;35.25
77077;BME280;66003;52.286;104.306;2023-03-01T13:57:49;96503.22;;;3.40;35.48
77077;BME280;66003;52.286;104.306;2023-03-01T14:03:04;96504.94;;;3.46;36.54
77077;BME280;66003;52.286;104.306;2023-03-01T14:05:33;96478.31;;;3.24;35.94
77077;BME280;66003;52.286;104.306;2023-03-01T14:08:03;96484.75;;;3.17;35.72
77077;BME280;66003;52.286;104.306;2023-03-01T14:10:41;96462.53;;;2.83;38.05
77077;BME280;66003;52.286;104.306;2023-03-01T14:16:24;96522.25;;;3.19;36.81
77077;BME280;66003;52.286;104.306;2023-03-01T14:21:26;96532.25;;;3.17;35.56
77077;BME280;66003;52.286;104.306;2023-03-01T14:23:52;96535.44;;;3.07;35.55
77077;BME280;66003;52.286;104.306;2023-03-01T14:26:23;96533.72;;;3.01;36.15
77077;BME280;66003;52.286;104.306;2023-03-01T14:28:50;96508.72;;;2.74;36.04
77077;BME280;66003;52.286;104.306;2023-03-01T14:31:43;96521.97;;;2.85;35.51
77077;BME280;66003;52.286;104.306;2023-03-01T14:34:22;96500.44;;;2.59;35.89
77077;BME280;66003;52.286;104.306;2023-03-01T14:36:49;96524.53;;;2.62;35.54
77077;BME280;66003;52.286;104.306;2023-03-01T14:39:23;96489.28;;;2.45;36.10
77077;BME280;66003;52.286;104.306;2023-03-01T14:41:51;96525.56;;;2.61;35.89
77077;BME280;66003;52.286;104.306;2023-03-01T14:44:23;96526.53;;;2.48;35.25